This is the latest recevied weather packets stored in our database for station/object SR2CPA-13. If no packets are shown the sender has not sent any weather packets the latest 10 day(s).
| Time | Temp. | Humidity | Pressure | Rain* | Wind** | Luminosity | Snow |
|---|---|---|---|---|---|---|---|
| 1777877015 | 18.89° C | 56% | 0 hPa | 0 mm | - | - | - |
| 1777876415 | 18.33° C | 56% | 0 hPa | 0 mm | - | - | - |
| 1777875795 | 18.33° C | 57% | 0 hPa | 0 mm | - | - | - |
| 1777875195 | 17.22° C | 60% | 0 hPa | 0 mm | - | - | - |
| 1777874575 | 16.11° C | 64% | 0 hPa | 0 mm | - | - | - |
| 1777873975 | 16.11° C | 64% | 0 hPa | 0 mm | - | - | - |
| 1777873355 | 15.56° C | 63% | 0 hPa | 0 mm | - | - | - |
| 1777872755 | 15.56° C | 64% | 0 hPa | 0 mm | - | - | - |
| 1777872135 | 14.44° C | 66% | 0 hPa | 0 mm | - | - | - |
| 1777871535 | 14.44° C | 67% | 0 hPa | 0 mm | - | - | - |
| 1777870915 | 13.89° C | 67% | 0 hPa | 0 mm | - | - | - |
| 1777870315 | 13.89° C | 68% | 0 hPa | 0 mm | - | - | - |
| 1777869715 | 13.33° C | 70% | 0 hPa | 0 mm | - | - | - |
| 1777869095 | 13.33° C | 68% | 0 hPa | 0 mm | - | - | - |
| 1777868495 | 12.78° C | 70% | 0 hPa | 0 mm | - | - | - |
| 1777867875 | 12.22° C | 72% | 0 hPa | 0 mm | - | - | - |
| 1777867275 | 11.11° C | 74% | 0 hPa | 0 mm | - | - | - |
| 1777866655 | 11.67° C | 71% | 0 hPa | 0 mm | - | - | - |
| 1777866055 | 12.22° C | 68% | 0 hPa | 0 mm | - | - | - |
| 1777865435 | 12.22° C | 69% | 0 hPa | 0 mm | - | - | - |
| 1777864835 | 11.67° C | 69% | 0 hPa | 0 mm | - | - | - |
| 1777864235 | 11.67° C | 69% | 0 hPa | 0 mm | - | - | - |
| 1777863634 | 12.78° C | 66% | 0 hPa | 0 mm | - | - | - |
| 1777863035 | 12.22° C | 66% | 0 hPa | 0 mm | - | - | - |
| 1777862434 | 12.22° C | 65% | 0 hPa | 0 mm | - | - | - |
* Rain latest hour (hover to see other rain measurements)
** Current wind speed in m/s (hover to see current wind gust speed)